Aluminator — WDC7587 — position and weather

sailwx.info

Track history (hours):
 
Tides and Currents Weather Stations Pressure Air Temp Water Temp Dewpoint Dewpoint Depression Visibility Wind Speed Wind Dir Waves Ship Positions

Aluminator

Owner: Aluminator Water Taxi, Inc., Bellevue, WA. More information available from US FCC via Universal Licensing System.

Last reported at 2016-Sep-19 19:32 UTC. Time now 2016-Sep-26 20:52 UTC.
Position N 47°40' W 122°55'.

Length 11 m; draft 1 m.

Type: Passenger vessel. MMSI: 367073680.

Date/timePositionNaut miles runAvg speedWind from/ knotsBaromVisibWave heightAir tempDewpointWater temp
2016-Sep-19 19:32N 47°40' W 122°55'0 0.0
2016-Sep-19 18:28N 47°40' W 122°55'2 0.1
2016-Sep-18 15:33N 47°40' W 122°52'1 1.0
2016-Sep-18 14:33N 47°40' W 122°53'  
2016-Sep-15 04:30N 48°13' W 122°46'8 8.8
2016-Sep-15 03:33N 48°05' W 122°41'14 7.1
2016-Sep-15 01:32N 47°51' W 122°39'15 3.8
2016-Sep-14 21:28N 47°40' W 122°55'0 0.0
2016-Sep-14 16:09N 47°40' W 122°55'0 0.0
2016-Sep-14 13:33N 47°40' W 122°55'7 0.1
2016-Sep-12 17:33N 47°45' W 122°50'4 0.1
2016-Sep-11 15:33N 47°42' W 122°52'5 4.8
2016-Sep-11 14:33N 47°46' W 122°49'8 0.5
2016-Sep-10 23:26N 47°40' W 122°55'6 7.1
2016-Sep-10 22:33N 47°45' W 122°50'0 0.1
2016-Sep-10 21:33N 47°45' W 122°50'0 0.5
2016-Sep-10 20:33N 47°45' W 122°49'1 1.0
2016-Sep-10 19:33N 47°44' W 122°49'1 0.8
2016-Sep-10 18:33N 47°44' W 122°50'2 2.2
2016-Sep-10 17:34N 47°46' W 122°50'2 2.2
2016-Sep-10 16:33N 47°44' W 122°50'1 0.8
2016-Sep-10 15:34N 47°45' W 122°50'0 0.2
2016-Sep-10 14:34N 47°45' W 122°50'3 2.7
2016-Sep-10 13:33N 47°42' W 122°51'3 0.2
2016-Sep-10 00:34N 47°40' W 122°54'6 6.1
2016-Sep-09 23:34N 47°46' W 122°51'1 0.7
2016-Sep-09 22:33N 47°45' W 122°51'5 4.5
2016-Sep-09 21:33N 47°41' W 122°53'  
Track history (hours):
 
Tides and Currents Weather Stations Pressure Air Temp Water Temp Dewpoint Dewpoint Depression Visibility Wind Speed Wind Dir Waves Ship Positions

Aluminator

Owner: Aluminator Water Taxi, Inc., Bellevue, WA. More information available from US FCC via Universal Licensing System.

Last reported at 2016-Sep-19 19:32 UTC. Time now 2016-Sep-26 20:52 UTC.
Position N 47°40' W 122°55'.

Length 11 m; draft 1 m.

Type: Passenger vessel. MMSI: 367073680.

Date/timePositionNaut miles runAvg speedWind from/ knotsBaromVisibWave heightAir tempDewpointWater temp
2016-Sep-19 19:32N 47°40' W 122°55'0 0.0
2016-Sep-19 18:28N 47°40' W 122°55'2 0.1
2016-Sep-18 15:33N 47°40' W 122°52'1 1.0
2016-Sep-18 14:33N 47°40' W 122°53'  
2016-Sep-15 04:30N 48°13' W 122°46'8 8.8
2016-Sep-15 03:33N 48°05' W 122°41'14 7.1
2016-Sep-15 01:32N 47°51' W 122°39'15 3.8
2016-Sep-14 21:28N 47°40' W 122°55'0 0.0
2016-Sep-14 16:09N 47°40' W 122°55'0 0.0
2016-Sep-14 13:33N 47°40' W 122°55'7 0.1
2016-Sep-12 17:33N 47°45' W 122°50'4 0.1
2016-Sep-11 15:33N 47°42' W 122°52'5 4.8
2016-Sep-11 14:33N 47°46' W 122°49'8 0.5
2016-Sep-10 23:26N 47°40' W 122°55'6 7.1
2016-Sep-10 22:33N 47°45' W 122°50'0 0.1
2016-Sep-10 21:33N 47°45' W 122°50'0 0.5
2016-Sep-10 20:33N 47°45' W 122°49'1 1.0
2016-Sep-10 19:33N 47°44' W 122°49'1 0.8
2016-Sep-10 18:33N 47°44' W 122°50'2 2.2
2016-Sep-10 17:34N 47°46' W 122°50'2 2.2
2016-Sep-10 16:33N 47°44' W 122°50'1 0.8
2016-Sep-10 15:34N 47°45' W 122°50'0 0.2
2016-Sep-10 14:34N 47°45' W 122°50'3 2.7
2016-Sep-10 13:33N 47°42' W 122°51'3 0.2
2016-Sep-10 00:34N 47°40' W 122°54'6 6.1
2016-Sep-09 23:34N 47°46' W 122°51'1 0.7
2016-Sep-09 22:33N 47°45' W 122°51'5 4.5
2016-Sep-09 21:33N 47°41' W 122°53'  

Dump ship's entire track history